Time;durP1;ratioP1;P1;durP2;ratioP2;P2;SDS_P1;SDS_P2;PMS_P1;PMS_P2;Temp;Humidity;BMP_temperature;BMP_pressure;BME280_temperature;BME280_humidity;BME280_pressure;Samples;Min_cycle;Max_cycle;Signal;HPM_P1;HPM_P2
2022/10/26 00:00:10;;;;;;;17.63;14.37;;;;;;;;;;5075011;28;20726;-67
2022/10/26 00:02:37;;;;;;;23.23;14.00;;;;;;;;;;5075326;28;20520;-67
2022/10/26 00:05:05;;;;;;;18.40;14.00;;;;;;;;;;5075625;28;20797;-67
2022/10/26 00:07:32;;;;;;;19.80;14.30;;;;;;;;;;5076004;28;20447;-67
2022/10/26 00:10:01;;;;;;;19.13;13.30;;;;;;;;;;5075660;28;20448;-67
2022/10/26 00:12:28;;;;;;;16.47;13.10;;;;;;;;;;5075542;28;20456;-66
2022/10/26 00:14:55;;;;;;;23.33;14.20;;;;;;;;;;5075187;28;20802;-67
2022/10/26 00:17:22;;;;;;;18.00;13.03;;;;;;;;;;5075692;28;20446;-66
2022/10/26 00:19:49;;;;;;;18.73;12.50;;;;;;;;;;5075275;28;20576;-66
2022/10/26 00:22:16;;;;;;;15.93;12.57;;;;;;;;;;5075293;28;20441;-66
2022/10/26 00:24:44;;;;;;;21.70;12.67;;;;;;;;;;5075292;28;20570;-67
2022/10/26 00:27:12;;;;;;;14.90;11.50;;;;;;;;;;5075714;28;20443;-68
2022/10/26 00:29:39;;;;;;;16.70;11.73;;;;;;;;;;5075247;28;20451;-67
2022/10/26 00:32:07;;;;;;;13.10;10.97;;;;;;;;;;5075440;28;20202;-67
2022/10/26 00:34:34;;;;;;;16.03;12.30;;;;;;;;;;5074729;28;20445;-67
2022/10/26 00:37:01;;;;;;;18.00;12.30;;;;;;;;;;5074959;28;20449;-67
2022/10/26 00:39:28;;;;;;;15.73;11.90;;;;;;;;;;5075008;28;20570;-67
2022/10/26 00:41:56;;;;;;;16.48;11.43;;;;;;;;;;5075373;28;20459;-67
2022/10/26 00:44:57;;;;;;;14.33;11.67;;;;;;;;;;5075024;28;20190;-67
2022/10/26 00:47:26;;;;;;;15.13;11.63;;;;;;;;;;5075342;28;20448;-67
2022/10/26 00:49:55;;;;;;;16.25;12.48;;;;;;;;;;5074844;28;20444;-67
2022/10/26 00:52:22;;;;;;;14.68;10.48;;;;;;;;;;5074900;28;20281;-67
2022/10/26 00:54:50;;;;;;;13.83;10.70;;;;;;;;;;5074645;28;20198;-66
2022/10/26 00:57:17;;;;;;;13.73;11.47;;;;;;;;;;5074806;28;20468;-67
2022/10/26 00:59:46;;;;;;;14.23;11.40;;;;;;;;;;5074541;28;20485;-66
2022/10/26 01:02:14;;;;;;;14.60;11.55;;;;;;;;;;5074697;28;20473;-67
2022/10/26 01:04:41;;;;;;;15.90;11.83;;;;;;;;;;5074812;28;20194;-66
2022/10/26 01:07:09;;;;;;;15.87;10.50;;;;;;;;;;5074568;28;20440;-67
2022/10/26 01:09:36;;;;;;;17.33;12.05;;;;;;;;;;5074155;28;20444;-67
2022/10/26 01:12:04;;;;;;;13.20;10.30;;;;;;;;;;5074084;28;20537;-67
2022/10/26 01:14:32;;;;;;;15.60;10.53;;;;;;;;;;5074273;28;20536;-66
2022/10/26 01:17:03;;;;;;;15.73;11.53;;;;;;;;;;5074656;28;20447;-66
2022/10/26 01:19:44;;;;;;;14.60;10.43;;;;;;;;;;5074038;28;21014;-67
2022/10/26 01:22:15;;;;;;;15.60;10.47;;;;;;;;;;5074649;28;20425;-66
2022/10/26 01:24:47;;;;;;;16.23;10.50;;;;;;;;;;5074466;28;20483;-66
2022/10/26 01:27:20;;;;;;;15.07;10.27;;;;;;;;;;5074775;28;20763;-66
2022/10/26 01:29:55;;;;;;;12.10;9.87;;;;;;;;;;5074293;28;20793;-67
2022/10/26 01:32:27;;;;;;;13.63;9.30;;;;;;;;;;5074035;28;20905;-67
2022/10/26 01:34:59;;;;;;;12.27;9.20;;;;;;;;;;5074259;28;20499;-66
2022/10/26 01:37:30;;;;;;;11.47;9.50;;;;;;;;;;5074235;28;20451;-66
2022/10/26 01:40:00;;;;;;;15.23;9.80;;;;;;;;;;5073993;28;20482;-67
2022/10/26 01:42:29;;;;;;;16.55;8.93;;;;;;;;;;5074145;28;20428;-68
2022/10/26 01:44:58;;;;;;;12.20;9.27;;;;;;;;;;5074167;28;20527;-67
2022/10/26 01:47:27;;;;;;;18.90;10.03;;;;;;;;;;5073843;28;20436;-66
2022/10/26 01:49:55;;;;;;;12.07;9.70;;;;;;;;;;5073778;28;20444;-66
2022/10/26 01:52:22;;;;;;;14.70;9.80;;;;;;;;;;5073879;28;20456;-66
2022/10/26 01:54:50;;;;;;;10.70;8.43;;;;;;;;;;5073855;28;20440;-66
2022/10/26 01:57:18;;;;;;;17.37;9.97;;;;;;;;;;5073709;28;20440;-66
2022/10/26 01:59:52;;;;;;;11.40;9.03;;;;;;;;;;5073249;28;20472;-66
2022/10/26 02:02:49;;;;;;;10.70;9.07;;;;;;;;;;5073314;28;20425;-66
2022/10/26 02:05:24;;;;;;;13.77;9.15;;;;;;;;;;5031523;28;20454;-67
2022/10/26 02:07:56;;;;;;;11.80;9.13;;;;;;;;;;5065963;28;20193;-66
2022/10/26 02:10:30;;;;;;;16.43;9.10;;;;;;;;;;5073583;28;20429;-67
2022/10/26 02:13:01;;;;;;;12.90;8.00;;;;;;;;;;5073623;28;20424;-66
2022/10/26 02:15:34;;;;;;;9.87;8.13;;;;;;;;;;5073782;28;20436;-67
2022/10/26 02:18:04;;;;;;;9.90;8.47;;;;;;;;;;5073221;28;20924;-67
2022/10/26 02:20:35;;;;;;;15.40;8.57;;;;;;;;;;5073012;28;20470;-67
2022/10/26 02:23:04;;;;;;;10.13;9.07;;;;;;;;;;5073848;28;20187;-67
2022/10/26 02:25:33;;;;;;;11.13;8.23;;;;;;;;;;5072856;28;20210;-67
2022/10/26 02:28:02;;;;;;;14.63;9.90;;;;;;;;;;5073410;28;20452;-67
2022/10/26 02:30:30;;;;;;;10.90;7.90;;;;;;;;;;5073845;28;20448;-67
2022/10/26 02:32:58;;;;;;;10.68;8.88;;;;;;;;;;5073378;28;20654;-67
2022/10/26 02:35:26;;;;;;;9.40;8.53;;;;;;;;;;5072939;28;20193;-67
2022/10/26 02:37:56;;;;;;;16.17;8.07;;;;;;;;;;5073319;28;20796;-67
2022/10/26 02:40:26;;;;;;;11.30;9.20;;;;;;;;;;5073111;28;20218;-67
2022/10/26 02:42:54;;;;;;;16.50;8.60;;;;;;;;;;5073502;28;20436;-66
2022/10/26 02:45:23;;;;;;;10.83;8.00;;;;;;;;;;5073265;28;20793;-66
2022/10/26 02:47:51;;;;;;;11.43;8.20;;;;;;;;;;5073085;28;20459;-66
2022/10/26 02:50:18;;;;;;;11.23;8.83;;;;;;;;;;5073257;28;20451;-67
2022/10/26 02:52:49;;;;;;;10.70;8.73;;;;;;;;;;5072908;28;20446;-67
2022/10/26 02:55:21;;;;;;;10.67;8.23;;;;;;;;;;5072929;28;20428;-66
2022/10/26 02:57:50;;;;;;;9.40;8.17;;;;;;;;;;5072898;28;20439;-66
2022/10/26 03:00:18;;;;;;;13.40;8.20;;;;;;;;;;5073432;28;20476;-66
2022/10/26 03:02:46;;;;;;;13.13;8.27;;;;;;;;;;5072650;28;20444;-67
2022/10/26 03:05:16;;;;;;;11.90;8.67;;;;;;;;;;5072598;28;20884;-66
2022/10/26 03:07:43;;;;;;;15.27;8.70;;;;;;;;;;5073034;28;20523;-67
2022/10/26 03:10:11;;;;;;;14.93;8.33;;;;;;;;;;5073526;28;20449;-67
2022/10/26 03:12:39;;;;;;;8.30;7.10;;;;;;;;;;5072889;28;20445;-66
2022/10/26 03:15:07;;;;;;;15.97;8.30;;;;;;;;;;5072904;28;20447;-66
2022/10/26 03:17:34;;;;;;;9.53;7.43;;;;;;;;;;5073060;28;20441;-67
2022/10/26 03:20:01;;;;;;;9.73;7.77;;;;;;;;;;5072798;28;20487;-67
2022/10/26 03:22:28;;;;;;;13.60;8.10;;;;;;;;;;5072977;28;20440;-66
2022/10/26 03:24:55;;;;;;;14.33;8.67;;;;;;;;;;5072693;28;20494;-67
2022/10/26 03:27:23;;;;;;;13.53;8.53;;;;;;;;;;5072829;28;20556;-66
2022/10/26 03:29:52;;;;;;;12.80;8.57;;;;;;;;;;5072808;28;20524;-67
2022/10/26 03:32:19;;;;;;;8.57;7.53;;;;;;;;;;5072453;28;20450;-67
2022/10/26 03:34:46;;;;;;;11.63;8.27;;;;;;;;;;5072806;28;20811;-67
2022/10/26 03:37:13;;;;;;;8.80;7.90;;;;;;;;;;5075500;28;20437;-67
2022/10/26 03:39:40;;;;;;;11.60;8.50;;;;;;;;;;5076154;28;20444;-66
2022/10/26 03:42:08;;;;;;;11.70;7.27;;;;;;;;;;5076425;28;20999;-67
2022/10/26 03:44:35;;;;;;;9.50;7.50;;;;;;;;;;5076988;28;20783;-66
2022/10/26 03:47:03;;;;;;;11.07;8.33;;;;;;;;;;5075786;28;20531;-67
2022/10/26 03:49:30;;;;;;;12.77;7.83;;;;;;;;;;5076155;28;20444;-67
2022/10/26 03:51:58;;;;;;;13.43;9.10;;;;;;;;;;5076069;28;20444;-66
2022/10/26 03:54:25;;;;;;;11.03;8.00;;;;;;;;;;5076531;28;20861;-66
2022/10/26 03:56:52;;;;;;;22.97;8.37;;;;;;;;;;5076309;28;20487;-66
2022/10/26 03:59:20;;;;;;;11.93;7.37;;;;;;;;;;5076699;28;20470;-66
2022/10/26 04:01:47;;;;;;;14.43;9.00;;;;;;;;;;5075721;28;20477;-67
2022/10/26 04:04:15;;;;;;;11.85;8.73;;;;;;;;;;5076145;28;20463;-66
2022/10/26 04:06:42;;;;;;;11.13;8.30;;;;;;;;;;5076161;28;20194;-67
2022/10/26 04:09:10;;;;;;;10.70;8.90;;;;;;;;;;5075375;28;20444;-66
2022/10/26 04:11:37;;;;;;;12.50;8.33;;;;;;;;;;5075318;28;20451;-67
2022/10/26 04:14:04;;;;;;;11.93;8.33;;;;;;;;;;5075700;28;20440;-67
2022/10/26 04:16:31;;;;;;;13.63;8.70;;;;;;;;;;5075493;28;20436;-67
2022/10/26 04:18:58;;;;;;;16.92;8.30;;;;;;;;;;5075595;28;20531;-67
2022/10/26 04:21:27;;;;;;;14.57;7.80;;;;;;;;;;5075178;28;20308;-68
2022/10/26 04:23:54;;;;;;;9.80;7.90;;;;;;;;;;5075436;28;20441;-67
2022/10/26 04:26:21;;;;;;;11.00;8.57;;;;;;;;;;5076028;28;20464;-66
2022/10/26 04:28:48;;;;;;;10.80;8.50;;;;;;;;;;5075410;28;20451;-67
2022/10/26 04:31:16;;;;;;;15.13;8.60;;;;;;;;;;5075640;28;20457;-67
2022/10/26 04:33:43;;;;;;;10.83;9.13;;;;;;;;;;5074918;28;20444;-67
2022/10/26 04:36:10;;;;;;;9.80;8.40;;;;;;;;;;5074868;28;20527;-66
2022/10/26 04:38:39;;;;;;;10.53;8.57;;;;;;;;;;5074960;28;20451;-67
2022/10/26 04:41:06;;;;;;;11.30;7.77;;;;;;;;;;5075234;28;20476;-66
2022/10/26 04:43:33;;;;;;;12.80;9.20;;;;;;;;;;5075224;28;20445;-65
2022/10/26 04:46:00;;;;;;;12.50;8.33;;;;;;;;;;5075243;28;20448;-67
2022/10/26 04:48:27;;;;;;;10.27;7.87;;;;;;;;;;5074778;28;20452;-66
2022/10/26 04:50:54;;;;;;;10.30;8.17;;;;;;;;;;5075496;28;20546;-67
2022/10/26 04:53:22;;;;;;;14.10;8.00;;;;;;;;;;5080172;28;20446;-67
2022/10/26 04:55:50;;;;;;;11.50;8.60;;;;;;;;;;5095247;28;20205;-66
2022/10/26 04:58:17;;;;;;;14.10;8.37;;;;;;;;;;5094588;28;20458;-67
2022/10/26 05:00:44;;;;;;;16.70;7.60;;;;;;;;;;5094923;28;20475;-66
2022/10/26 05:03:12;;;;;;;11.17;8.53;;;;;;;;;;5094858;28;20444;-66
2022/10/26 05:05:39;;;;;;;13.10;7.57;;;;;;;;;;5095181;28;20448;-66
2022/10/26 05:08:06;;;;;;;13.38;9.18;;;;;;;;;;5094423;28;20534;-67
2022/10/26 05:10:35;;;;;;;10.33;8.33;;;;;;;;;;5094427;28;20194;-66
2022/10/26 05:13:04;;;;;;;10.90;7.10;;;;;;;;;;5094854;28;20450;-66
2022/10/26 05:15:31;;;;;;;11.33;7.80;;;;;;;;;;5094989;28;20443;-66
2022/10/26 05:18:00;;;;;;;11.88;7.30;;;;;;;;;;5094583;28;20444;-66
2022/10/26 05:20:29;;;;;;;12.93;8.63;;;;;;;;;;5094262;28;20288;-66
2022/10/26 05:22:57;;;;;;;12.40;8.17;;;;;;;;;;5095246;28;20944;-66
2022/10/26 05:25:24;;;;;;;11.70;7.50;;;;;;;;;;5094461;28;20468;-66
2022/10/26 05:27:51;;;;;;;9.45;8.43;;;;;;;;;;5094427;28;20440;-66
2022/10/26 05:30:20;;;;;;;10.53;8.27;;;;;;;;;;5094997;28;20193;-66
2022/10/26 05:32:53;;;;;;;9.57;7.63;;;;;;;;;;5094717;28;20487;-66
2022/10/26 05:35:21;;;;;;;13.60;8.70;;;;;;;;;;5094675;28;20917;-66
2022/10/26 05:37:48;;;;;;;10.73;8.10;;;;;;;;;;5094152;28;20444;-66
2022/10/26 05:40:15;;;;;;;8.70;7.70;;;;;;;;;;5094542;28;20451;-66
2022/10/26 05:42:46;;;;;;;10.10;8.33;;;;;;;;;;5094219;28;20480;-66
2022/10/26 05:45:13;;;;;;;9.90;7.97;;;;;;;;;;5094347;28;20448;-66
2022/10/26 05:47:42;;;;;;;8.60;7.70;;;;;;;;;;5094115;28;20809;-66
2022/10/26 05:50:10;;;;;;;7.50;6.80;;;;;;;;;;5094055;28;20448;-66
2022/10/26 05:52:39;;;;;;;8.07;7.30;;;;;;;;;;5093596;28;20444;-66
2022/10/26 05:55:07;;;;;;;11.90;8.53;;;;;;;;;;5094316;28;20444;-66
2022/10/26 05:57:35;;;;;;;9.60;8.70;;;;;;;;;;5093983;28;20444;-66
2022/10/26 06:00:02;;;;;;;9.40;7.80;;;;;;;;;;5093237;28;20454;-67
2022/10/26 06:02:33;;;;;;;9.97;8.40;;;;;;;;;;5093814;28;20501;-66
2022/10/26 06:05:04;;;;;;;15.40;9.43;;;;;;;;;;5093765;28;20461;-66
2022/10/26 06:07:32;;;;;;;10.80;8.90;;;;;;;;;;5093749;28;20448;-66
2022/10/26 06:09:59;;;;;;;14.80;7.47;;;;;;;;;;5093394;28;20946;-66
2022/10/26 06:12:27;;;;;;;9.63;8.00;;;;;;;;;;5093681;28;20448;-66
2022/10/26 06:14:54;;;;;;;9.23;7.60;;;;;;;;;;5093382;28;20441;-66
2022/10/26 06:17:36;;;;;;;13.17;7.97;;;;;;;;;;5093435;28;20933;-66
2022/10/26 06:20:10;;;;;;;14.60;8.10;;;;;;;;;;5091520;28;20447;-66
2022/10/26 06:22:42;;;;;;;8.67;7.43;;;;;;;;;;5093109;28;20464;-66
2022/10/26 06:25:14;;;;;;;13.43;7.80;;;;;;;;;;5093309;28;20476;-66
2022/10/26 06:27:44;;;;;;;11.60;7.27;;;;;;;;;;5093297;28;20436;-66
2022/10/26 06:30:12;;;;;;;8.23;7.30;;;;;;;;;;5093571;28;20447;-65
2022/10/26 06:32:39;;;;;;;11.27;7.73;;;;;;;;;;5093579;28;20446;-66
2022/10/26 06:35:15;;;;;;;13.53;7.77;;;;;;;;;;5093313;28;20880;-66
2022/10/26 06:37:43;;;;;;;16.63;8.57;;;;;;;;;;5093570;28;20435;-67
2022/10/26 06:40:11;;;;;;;18.70;7.47;;;;;;;;;;5093302;28;20432;-66
2022/10/26 06:42:39;;;;;;;11.77;7.80;;;;;;;;;;5093082;28;20976;-65
2022/10/26 06:45:07;;;;;;;10.00;7.50;;;;;;;;;;5093064;28;20439;-66
2022/10/26 06:47:38;;;;;;;18.50;8.80;;;;;;;;;;5093048;28;20445;-66
2022/10/26 06:50:10;;;;;;;9.70;7.37;;;;;;;;;;5093385;28;20442;-66
2022/10/26 06:52:43;;;;;;;13.00;7.20;;;;;;;;;;5094090;28;20440;-66
2022/10/26 06:55:14;;;;;;;8.83;6.40;;;;;;;;;;5093135;28;20921;-66
2022/10/26 06:57:41;;;;;;;8.50;7.07;;;;;;;;;;5094036;28;20772;-66
2022/10/26 07:00:15;;;;;;;8.20;7.00;;;;;;;;;;5093099;28;20443;-66
2022/10/26 07:02:42;;;;;;;10.60;7.37;;;;;;;;;;5093521;28;20463;-66
2022/10/26 07:05:11;;;;;;;8.87;7.67;;;;;;;;;;5093028;28;20443;-67
2022/10/26 07:07:41;;;;;;;7.10;6.20;;;;;;;;;;5092794;28;20466;-66
2022/10/26 07:10:09;;;;;;;7.53;6.63;;;;;;;;;;5092900;28;20424;-66
2022/10/26 07:12:36;;;;;;;9.20;7.40;;;;;;;;;;5096482;28;20446;-67
2022/10/26 07:15:03;;;;;;;7.53;6.80;;;;;;;;;;5096925;28;20952;-67
2022/10/26 07:17:31;;;;;;;7.40;6.00;;;;;;;;;;5096953;28;20440;-66
2022/10/26 07:19:58;;;;;;;8.37;6.60;;;;;;;;;;5096550;28;20480;-69
2022/10/26 07:22:25;;;;;;;10.80;6.17;;;;;;;;;;5096464;28;20472;-68
2022/10/26 07:24:54;;;;;;;12.17;7.73;;;;;;;;;;5096538;28;20467;-67
2022/10/26 07:27:22;;;;;;;8.40;6.73;;;;;;;;;;5097309;28;20918;-67
2022/10/26 07:29:50;;;;;;;10.60;6.53;;;;;;;;;;5096815;28;20448;-68
2022/10/26 07:32:17;;;;;;;13.00;6.63;;;;;;;;;;5096773;28;20448;-69
2022/10/26 07:34:44;;;;;;;12.97;7.07;;;;;;;;;;5096565;28;20452;-66
2022/10/26 07:37:11;;;;;;;8.40;6.60;;;;;;;;;;5096253;28;20441;-67
2022/10/26 07:39:38;;;;;;;22.63;7.43;;;;;;;;;;5096357;28;20465;-67
2022/10/26 07:42:08;;;;;;;11.27;7.40;;;;;;;;;;5096094;28;20482;-66
2022/10/26 07:44:35;;;;;;;7.77;6.10;;;;;;;;;;5096486;28;20451;-66
2022/10/26 07:47:02;;;;;;;16.00;6.83;;;;;;;;;;5096487;28;20448;-66
2022/10/26 07:49:30;;;;;;;7.10;6.40;;;;;;;;;;5096400;28;20436;-66
2022/10/26 07:52:00;;;;;;;10.10;6.80;;;;;;;;;;5096388;28;20448;-66
2022/10/26 07:54:28;;;;;;;5.97;5.37;;;;;;;;;;5096015;28;20451;-66
2022/10/26 07:56:55;;;;;;;10.60;6.47;;;;;;;;;;5096347;28;20471;-66
2022/10/26 07:59:23;;;;;;;9.07;6.50;;;;;;;;;;5096285;28;20520;-66
2022/10/26 08:01:51;;;;;;;7.60;6.30;;;;;;;;;;5095931;28;20467;-66
2022/10/26 08:04:18;;;;;;;11.27;6.90;;;;;;;;;;5096680;28;20444;-66
2022/10/26 08:06:46;;;;;;;11.23;6.00;;;;;;;;;;5096171;28;20452;-66
2022/10/26 08:09:13;;;;;;;8.40;6.37;;;;;;;;;;5095943;28;20445;-66
2022/10/26 08:11:40;;;;;;;12.83;7.10;;;;;;;;;;5096050;28;20452;-67
2022/10/26 08:14:07;;;;;;;9.83;7.80;;;;;;;;;;5095652;28;20442;-66
2022/10/26 08:16:38;;;;;;;9.10;6.00;;;;;;;;;;5095955;28;20467;-67
2022/10/26 08:19:05;;;;;;;18.47;6.40;;;;;;;;;;5096013;28;20429;-68
2022/10/26 08:21:33;;;;;;;9.80;6.50;;;;;;;;;;5095253;28;20446;-67
2022/10/26 08:24:00;;;;;;;7.77;5.73;;;;;;;;;;5095537;28;20447;-66
2022/10/26 08:26:27;;;;;;;7.10;6.10;;;;;;;;;;5095275;28;20824;-67
2022/10/26 08:28:55;;;;;;;9.63;6.17;;;;;;;;;;5095676;28;20501;-67
2022/10/26 08:31:22;;;;;;;7.60;5.87;;;;;;;;;;5095754;28;20446;-67
2022/10/26 08:33:51;;;;;;;12.53;5.83;;;;;;;;;;5095776;28;20441;-67
2022/10/26 08:36:20;;;;;;;10.73;6.00;;;;;;;;;;5095119;28;20966;-67
2022/10/26 08:38:48;;;;;;;8.40;5.40;;;;;;;;;;5095625;28;20853;-67
2022/10/26 08:41:15;;;;;;;6.90;5.80;;;;;;;;;;5095943;28;20453;-66
2022/10/26 08:43:46;;;;;;;12.07;6.33;;;;;;;;;;5095301;28;20483;-67
2022/10/26 08:46:14;;;;;;;8.23;6.50;;;;;;;;;;5095644;28;20440;-67
2022/10/26 08:48:44;;;;;;;12.60;6.33;;;;;;;;;;5095802;28;20432;-67
2022/10/26 08:51:15;;;;;;;6.87;5.93;;;;;;;;;;5094764;28;20460;-66
2022/10/26 08:53:44;;;;;;;10.57;6.13;;;;;;;;;;5095532;28;20438;-67
2022/10/26 08:56:14;;;;;;;8.30;6.47;;;;;;;;;;5094789;28;20445;-67
2022/10/26 08:58:46;;;;;;;9.53;7.03;;;;;;;;;;5094822;28;20452;-67
2022/10/26 09:01:13;;;;;;;8.93;6.30;;;;;;;;;;5094605;28;20513;-67
2022/10/26 09:03:40;;;;;;;8.20;6.00;;;;;;;;;;5094742;28;20482;-67
2022/10/26 09:06:25;;;;;;;14.73;5.97;;;;;;;;;;5095067;28;20458;-67
2022/10/26 09:08:57;;;;;;;6.60;5.00;;;;;;;;;;5094697;28;20427;-67
2022/10/26 09:11:31;;;;;;;8.77;5.30;;;;;;;;;;5095271;28;20788;-66
2022/10/26 09:14:02;;;;;;;8.37;5.80;;;;;;;;;;5094529;28;20443;-67
2022/10/26 09:16:33;;;;;;;9.50;7.27;;;;;;;;;;5094802;28;20887;-67
2022/10/26 09:19:21;;;;;;;9.23;7.70;;;;;;;;;;5095026;28;20442;-66
2022/10/26 09:21:51;;;;;;;9.03;5.97;;;;;;;;;;5094699;28;20434;-68
2022/10/26 09:24:23;;;;;;;8.03;5.67;;;;;;;;;;5094160;28;20941;-67
2022/10/26 09:26:54;;;;;;;10.37;5.07;;;;;;;;;;5094667;28;20500;-67
2022/10/26 09:29:23;;;;;;;5.33;4.90;;;;;;;;;;5094835;28;20480;-67
2022/10/26 09:31:51;;;;;;;7.60;5.47;;;;;;;;;;5094382;28;20454;-67
2022/10/26 09:34:22;;;;;;;7.07;4.53;;;;;;;;;;5093264;28;20922;-66
2022/10/26 09:36:54;;;;;;;13.57;4.33;;;;;;;;;;5094629;28;20436;-66
2022/10/26 09:39:24;;;;;;;7.17;5.73;;;;;;;;;;5075633;28;20444;-67
2022/10/26 09:41:54;;;;;;;14.23;5.33;;;;;;;;;;5074155;28;20763;-67
2022/10/26 09:44:26;;;;;;;7.03;5.07;;;;;;;;;;5073861;28;20445;-66
2022/10/26 09:46:56;;;;;;;17.80;5.90;;;;;;;;;;5074473;28;20489;-67
2022/10/26 09:49:29;;;;;;;15.90;4.60;;;;;;;;;;5074197;28;20454;-66
2022/10/26 09:51:57;;;;;;;8.67;3.83;;;;;;;;;;5073935;28;20428;-67
2022/10/26 09:54:25;;;;;;;6.10;3.80;;;;;;;;;;5074112;28;20447;-66
2022/10/26 09:56:54;;;;;;;4.67;4.17;;;;;;;;;;5073332;28;20928;-66
2022/10/26 09:59:22;;;;;;;8.63;3.37;;;;;;;;;;5073953;28;20447;-66
2022/10/26 10:01:49;;;;;;;4.90;3.50;;;;;;;;;;5073491;28;20528;-66
2022/10/26 10:04:21;;;;;;;6.53;3.07;;;;;;;;;;5073232;28;20544;-66
2022/10/26 10:06:49;;;;;;;4.63;3.27;;;;;;;;;;5073384;28;20972;-67
2022/10/26 10:09:19;;;;;;;4.40;2.53;;;;;;;;;;5073167;28;20490;-66
2022/10/26 10:11:53;;;;;;;4.43;2.00;;;;;;;;;;5073156;28;20906;-67
2022/10/26 10:14:22;;;;;;;4.30;2.50;;;;;;;;;;5073815;28;20442;-66
2022/10/26 10:16:54;;;;;;;13.00;2.43;;;;;;;;;;5073071;28;20446;-66
2022/10/26 10:19:23;;;;;;;4.13;2.33;;;;;;;;;;5073500;28;20513;-66
2022/10/26 10:21:51;;;;;;;2.87;2.67;;;;;;;;;;5073220;28;20446;-66
2022/10/26 10:24:25;;;;;;;3.50;2.53;;;;;;;;;;5073454;28;20476;-65
2022/10/26 10:27:00;;;;;;;8.80;3.37;;;;;;;;;;5073482;28;20790;-66
2022/10/26 10:29:28;;;;;;;4.27;2.47;;;;;;;;;;5073355;28;20528;-67
2022/10/26 10:31:59;;;;;;;4.47;2.53;;;;;;;;;;5073477;28;20444;-66
2022/10/26 10:34:26;;;;;;;6.63;2.77;;;;;;;;;;5072983;28;20444;-67
2022/10/26 10:36:54;;;;;;;3.73;2.70;;;;;;;;;;5072866;28;20448;-67
2022/10/26 10:39:34;;;;;;;5.30;2.50;;;;;;;;;;5072708;28;20963;-67
2022/10/26 10:42:01;;;;;;;4.23;2.73;;;;;;;;;;5072913;28;20435;-66
2022/10/26 10:44:30;;;;;;;3.83;2.40;;;;;;;;;;5072528;28;20483;-67
2022/10/26 10:47:01;;;;;;;2.77;2.40;;;;;;;;;;5076605;28;20446;-66
2022/10/26 10:49:29;;;;;;;3.23;2.70;;;;;;;;;;5076923;28;20511;-66
2022/10/26 10:51:56;;;;;;;5.83;2.50;;;;;;;;;;5077006;28;20440;-67
2022/10/26 10:54:25;;;;;;;5.80;2.70;;;;;;;;;;5076621;28;20962;-66
2022/10/26 10:56:55;;;;;;;8.97;2.67;;;;;;;;;;5077003;28;20930;-66
2022/10/26 10:59:43;;;;;;;6.23;2.73;;;;;;;;;;5077054;28;20444;-66
2022/10/26 11:02:24;;;;;;;10.37;2.63;;;;;;;;;;5076839;28;20866;-66
2022/10/26 11:05:02;;;;;;;5.63;3.00;;;;;;;;;;5077404;28;20462;-66
2022/10/26 11:07:30;;;;;;;8.20;4.17;;;;;;;;;;5077052;28;20897;-66
2022/10/26 11:10:01;;;;;;;3.43;2.50;;;;;;;;;;5076883;28;20439;-66
2022/10/26 11:12:31;;;;;;;6.53;2.50;;;;;;;;;;5076726;28;20531;-67
2022/10/26 11:15:01;;;;;;;5.77;2.87;;;;;;;;;;5076957;28;20440;-66
2022/10/26 11:17:31;;;;;;;8.07;2.53;;;;;;;;;;5076703;28;20446;-66
2022/10/26 11:20:01;;;;;;;4.50;3.60;;;;;;;;;;5077288;28;20457;-66
2022/10/26 11:22:30;;;;;;;3.83;2.80;;;;;;;;;;5075806;28;20450;-66
2022/10/26 11:25:00;;;;;;;9.10;3.27;;;;;;;;;;5076320;28;20478;-66
2022/10/26 11:27:29;;;;;;;4.63;2.60;;;;;;;;;;5076557;28;20443;-66
2022/10/26 11:30:02;;;;;;;3.37;2.50;;;;;;;;;;5076496;28;20444;-66
2022/10/26 11:32:31;;;;;;;3.30;2.73;;;;;;;;;;5076853;28;20531;-66
2022/10/26 11:35:01;;;;;;;3.10;2.43;;;;;;;;;;5076530;28;20448;-66
2022/10/26 11:37:31;;;;;;;6.00;3.27;;;;;;;;;;5076419;28;20440;-66
2022/10/26 11:40:02;;;;;;;7.70;3.63;;;;;;;;;;5076603;28;20446;-66
2022/10/26 11:42:33;;;;;;;4.57;2.63;;;;;;;;;;5076051;28;20435;-65
2022/10/26 11:45:05;;;;;;;9.83;4.27;;;;;;;;;;5076059;28;20502;-66
2022/10/26 11:47:38;;;;;;;5.47;2.87;;;;;;;;;;5076732;28;20441;-65
2022/10/26 11:50:12;;;;;;;6.93;2.67;;;;;;;;;;5076139;28;20838;-65
2022/10/26 11:52:41;;;;;;;4.00;2.60;;;;;;;;;;5076288;28;20438;-65
2022/10/26 11:55:09;;;;;;;9.10;2.40;;;;;;;;;;5075722;28;20963;-66
2022/10/26 11:57:37;;;;;;;5.50;3.07;;;;;;;;;;5075174;28;20447;-66
2022/10/26 12:00:07;;;;;;;4.60;3.10;;;;;;;;;;5075916;28;20441;-65
2022/10/26 12:02:38;;;;;;;8.00;2.97;;;;;;;;;;5075349;28;20455;-66
2022/10/26 12:05:08;;;;;;;5.53;2.67;;;;;;;;;;5075766;28;20450;-65
2022/10/26 12:07:37;;;;;;;6.40;2.90;;;;;;;;;;5075989;28;20429;-66
2022/10/26 12:10:07;;;;;;;3.97;2.37;;;;;;;;;;5075647;28;20440;-65
2022/10/26 12:12:36;;;;;;;7.80;2.70;;;;;;;;;;5076137;28;20434;-66
2022/10/26 12:15:08;;;;;;;4.33;2.33;;;;;;;;;;5075640;28;20459;-66
2022/10/26 12:17:38;;;;;;;3.70;2.43;;;;;;;;;;5075838;28;20439;-66
2022/10/26 12:20:11;;;;;;;6.80;2.80;;;;;;;;;;5075573;28;20445;-66
2022/10/26 12:22:39;;;;;;;3.53;2.50;;;;;;;;;;5075296;28;20444;-65
2022/10/26 12:25:08;;;;;;;9.57;2.80;;;;;;;;;;5075362;28;20489;-65
2022/10/26 12:27:50;;;;;;;4.63;2.90;;;;;;;;;;5075437;28;20448;-66
2022/10/26 12:30:26;;;;;;;6.43;2.50;;;;;;;;;;5075681;28;20428;-65
2022/10/26 12:32:55;;;;;;;3.40;2.33;;;;;;;;;;5075256;28;20446;-65
2022/10/26 12:35:36;;;;;;;5.30;3.27;;;;;;;;;;5075029;28;20453;-66
2022/10/26 12:38:23;;;;;;;4.57;2.97;;;;;;;;;;5075865;28;20837;-65
2022/10/26 12:41:08;;;;;;;4.47;3.00;;;;;;;;;;5075266;28;20452;-66
2022/10/26 12:43:37;;;;;;;7.03;3.27;;;;;;;;;;5074601;28;20975;-65
2022/10/26 12:46:23;;;;;;;5.50;2.97;;;;;;;;;;5074821;28;20492;-66
2022/10/26 12:48:58;;;;;;;4.70;3.40;;;;;;;;;;5075535;28;20522;-66
2022/10/26 12:51:43;;;;;;;4.87;3.00;;;;;;;;;;5074463;28;20458;-66
2022/10/26 12:54:18;;;;;;;5.50;3.00;;;;;;;;;;5074792;28;20792;-65
2022/10/26 12:56:51;;;;;;;3.73;2.80;;;;;;;;;;5074760;28;20435;-66
2022/10/26 12:59:25;;;;;;;8.17;3.30;;;;;;;;;;5074237;28;20429;-65
2022/10/26 13:02:04;;;;;;;4.40;3.00;;;;;;;;;;5074581;28;20458;-66
2022/10/26 13:04:50;;;;;;;10.23;4.20;;;;;;;;;;5074440;28;20478;-66
2022/10/26 13:07:18;;;;;;;6.83;3.40;;;;;;;;;;5074730;28;20443;-66
2022/10/26 13:09:46;;;;;;;7.17;3.20;;;;;;;;;;5074250;28;20451;-67
2022/10/26 13:12:15;;;;;;;5.03;2.70;;;;;;;;;;5074641;28;20444;-65
2022/10/26 13:14:54;;;;;;;7.60;3.23;;;;;;;;;;5074436;28;20550;-66
2022/10/26 13:17:25;;;;;;;8.80;3.30;;;;;;;;;;5074128;28;20443;-65
2022/10/26 13:19:55;;;;;;;9.33;3.60;;;;;;;;;;5073962;28;20451;-65
2022/10/26 13:22:24;;;;;;;8.70;2.73;;;;;;;;;;5074039;28;20449;-66
2022/10/26 13:24:53;;;;;;;3.37;3.07;;;;;;;;;;5073909;28;20487;-65
2022/10/26 13:27:25;;;;;;;6.50;3.10;;;;;;;;;;5074241;28;20446;-65
2022/10/26 13:30:11;;;;;;;4.87;3.20;;;;;;;;;;5074042;28;20447;-66
2022/10/26 13:32:40;;;;;;;14.00;3.53;;;;;;;;;;5074256;28;20477;-65
2022/10/26 13:35:12;;;;;;;5.57;3.40;;;;;;;;;;5074129;28;20452;-65
2022/10/26 13:37:42;;;;;;;5.33;3.20;;;;;;;;;;5074443;28;20436;-66
2022/10/26 13:40:14;;;;;;;11.97;3.87;;;;;;;;;;5073853;28;20804;-65
2022/10/26 13:42:45;;;;;;;6.30;3.33;;;;;;;;;;5074285;28;20436;-66
2022/10/26 13:45:14;;;;;;;4.23;3.23;;;;;;;;;;5073768;28;20834;-66
2022/10/26 13:47:43;;;;;;;3.63;2.77;;;;;;;;;;5074235;28;20473;-66
2022/10/26 13:50:12;;;;;;;5.30;2.80;;;;;;;;;;5073365;28;20937;-66
2022/10/26 13:52:41;;;;;;;6.00;3.13;;;;;;;;;;5073327;28;20440;-66
2022/10/26 13:55:10;;;;;;;5.83;3.27;;;;;;;;;;5073617;28;20444;-66
2022/10/26 13:57:39;;;;;;;7.67;3.40;;;;;;;;;;5073442;28;20440;-66
2022/10/26 14:00:15;;;;;;;11.50;3.33;;;;;;;;;;5073267;28;20454;-66
2022/10/26 14:02:42;;;;;;;8.70;3.63;;;;;;;;;;5073273;28;20567;-66
2022/10/26 14:05:11;;;;;;;6.10;3.50;;;;;;;;;;5072171;28;20500;-66
2022/10/26 14:07:41;;;;;;;11.70;2.73;;;;;;;;;;5073496;28;20447;-66
2022/10/26 14:10:23;;;;;;;20.10;4.93;;;;;;;;;;5073273;28;20425;-66
2022/10/26 14:12:51;;;;;;;7.97;3.00;;;;;;;;;;5073984;28;20766;-66
2022/10/26 14:15:23;;;;;;;5.27;2.90;;;;;;;;;;5073958;28;20454;-66
2022/10/26 14:17:51;;;;;;;5.20;3.50;;;;;;;;;;5073559;28;20520;-66
2022/10/26 14:20:19;;;;;;;5.70;3.23;;;;;;;;;;5073588;28;20511;-66
2022/10/26 14:22:46;;;;;;;7.93;3.40;;;;;;;;;;5073325;28;20440;-65
2022/10/26 14:25:19;;;;;;;9.57;3.63;;;;;;;;;;5072837;28;20500;-65
2022/10/26 14:27:46;;;;;;;8.20;3.10;;;;;;;;;;5073054;28;20448;-65
2022/10/26 14:30:24;;;;;;;6.53;3.23;;;;;;;;;;5073087;28;20458;-66
2022/10/26 14:32:52;;;;;;;6.10;3.07;;;;;;;;;;5073126;28;20456;-65
2022/10/26 14:35:22;;;;;;;4.93;2.90;;;;;;;;;;5072598;28;20455;-66
2022/10/26 14:37:52;;;;;;;3.70;2.43;;;;;;;;;;5073187;28;20459;-66
2022/10/26 14:40:20;;;;;;;4.13;2.67;;;;;;;;;;5073112;28;20429;-66
2022/10/26 14:42:49;;;;;;;3.27;2.57;;;;;;;;;;5073623;28;20444;-66
2022/10/26 14:45:25;;;;;;;4.13;3.30;;;;;;;;;;5072894;28;20471;-66
2022/10/26 14:47:52;;;;;;;4.13;3.17;;;;;;;;;;5073193;28;20430;-66
2022/10/26 14:50:20;;;;;;;8.23;2.40;;;;;;;;;;5072932;28;20439;-66